createdAt,value
2024-01-20T00:01:19.362Z,6.78
2024-01-20T00:04:07.065Z,7.55
2024-01-20T00:06:55.026Z,6.80
2024-01-20T00:09:49.899Z,7.43
2024-01-20T00:12:40.091Z,8.15
2024-01-20T00:15:27.356Z,6.65
2024-01-20T00:18:14.798Z,7.72
2024-01-20T00:21:02.425Z,6.47
2024-01-20T00:23:50.384Z,5.57
2024-01-20T00:26:37.694Z,6.32
2024-01-20T00:29:25.215Z,6.13
2024-01-20T00:32:12.790Z,5.85
2024-01-20T00:35:06.936Z,7.75
2024-01-20T00:37:55.684Z,5.85
2024-01-20T00:40:42.967Z,5.68
2024-01-20T00:43:30.137Z,6.72
2024-01-20T00:46:17.351Z,5.60
2024-01-20T00:49:04.726Z,7.32
2024-01-20T00:51:51.967Z,6.65
2024-01-20T00:54:39.306Z,8.35
2024-01-20T00:57:26.530Z,6.57
2024-01-20T01:00:14.133Z,6.68
2024-01-20T01:03:01.367Z,7.40
2024-01-20T01:05:48.643Z,6.30
2024-01-20T01:08:36.410Z,6.65
2024-01-20T01:11:24.176Z,6.95
2024-01-20T01:14:11.723Z,7.28
2024-01-20T01:16:59.088Z,7.57
2024-01-20T01:19:46.575Z,7.00
2024-01-20T01:22:33.927Z,7.80
2024-01-20T01:25:23.455Z,6.45
2024-01-20T01:28:10.673Z,8.45
2024-01-20T01:30:57.861Z,7.15
2024-01-20T01:33:45.294Z,7.75
2024-01-20T01:36:32.559Z,7.68
2024-01-20T01:39:21.409Z,8.07
2024-01-20T01:42:08.564Z,9.10
2024-01-20T01:44:55.923Z,7.97
2024-01-20T01:47:43.237Z,8.82
2024-01-20T01:50:30.848Z,7.70
2024-01-20T01:53:18.583Z,7.82
2024-01-20T01:56:06.733Z,7.70
2024-01-20T01:58:54.498Z,8.30
2024-01-20T02:01:42.036Z,8.95
2024-01-20T02:04:29.626Z,7.35
2024-01-20T02:07:17.914Z,8.07
2024-01-20T02:10:07.696Z,8.55
2024-01-20T02:12:55.378Z,7.85
2024-01-20T02:15:43.026Z,8.45
2024-01-20T02:18:30.663Z,8.35
2024-01-20T02:21:17.940Z,8.23
2024-01-20T02:24:08.913Z,6.70
2024-01-20T02:26:56.283Z,7.60
2024-01-20T02:29:43.611Z,7.93
2024-01-20T02:32:31.105Z,6.30
2024-01-20T02:35:20.090Z,6.57
2024-01-20T02:38:07.603Z,6.22
2024-01-20T02:40:54.904Z,7.30
2024-01-20T02:43:42.109Z,6.93
2024-01-20T02:46:29.378Z,8.55
2024-01-20T02:49:16.971Z,5.75
2024-01-20T02:52:04.518Z,8.00
2024-01-20T02:54:51.886Z,7.60
2024-01-20T02:57:39.260Z,8.23
2024-01-20T03:00:29.431Z,7.82
2024-01-20T03:03:17.026Z,5.95
2024-01-20T03:06:04.646Z,8.68
2024-01-20T03:08:52.175Z,6.68
2024-01-20T03:11:39.646Z,7.50
2024-01-20T03:14:27.324Z,6.97
2024-01-20T03:17:15.635Z,7.60
2024-01-20T03:20:02.904Z,7.68
2024-01-20T03:22:50.267Z,7.65
2024-01-20T03:25:37.461Z,6.72
2024-01-20T03:28:24.760Z,6.50
2024-01-20T03:31:12.308Z,7.60
2024-01-20T03:33:59.839Z,7.50
2024-01-20T03:36:48.523Z,8.00
2024-01-20T03:39:35.904Z,7.95
2024-01-20T03:42:23.945Z,6.13
2024-01-20T03:45:11.366Z,7.15
2024-01-20T03:48:00.278Z,4.65
2024-01-20T03:50:47.914Z,7.72
2024-01-20T03:53:35.158Z,8.30
2024-01-20T03:56:22.504Z,9.43
2024-01-20T03:59:10.056Z,9.30
2024-01-20T04:01:57.355Z,8.82
2024-01-20T04:04:44.716Z,8.63
2024-01-20T04:07:32.066Z,9.25
2024-01-20T04:10:19.458Z,8.77
2024-01-20T04:13:07.145Z,9.93
2024-01-20T04:15:55.891Z,7.15
2024-01-20T04:18:43.419Z,10.68
2024-01-20T04:21:32.481Z,10.40
2024-01-20T04:24:19.841Z,9.85
2024-01-20T04:27:07.044Z,10.27
2024-01-20T04:29:54.354Z,9.35
2024-01-20T04:32:41.605Z,9.63
2024-01-20T04:35:28.950Z,8.35
2024-01-20T04:38:16.097Z,9.23
2024-01-20T04:41:03.434Z,10.02
2024-01-20T04:43:50.676Z,8.65
2024-01-20T04:46:37.957Z,9.75
2024-01-20T04:49:25.479Z,8.35
2024-01-20T04:52:12.830Z,8.98
2024-01-20T04:55:00.865Z,7.15
2024-01-20T04:57:48.081Z,9.02
2024-01-20T05:00:36.852Z,8.25
2024-01-20T05:03:24.588Z,10.82
2024-01-20T05:06:12.101Z,10.60
2024-01-20T05:09:00.385Z,11.45
2024-01-20T05:11:47.627Z,12.48
2024-01-20T05:14:35.183Z,10.63
2024-01-20T05:17:22.715Z,10.70
2024-01-20T05:23:02.229Z,9.10
2024-01-20T05:25:49.720Z,9.95
2024-01-20T05:28:36.961Z,11.02
2024-01-20T05:31:25.893Z,11.23
2024-01-20T05:34:13.294Z,8.25
2024-01-20T05:37:00.641Z,8.98
2024-01-20T05:39:47.827Z,8.90
2024-01-20T05:42:35.212Z,8.75
2024-01-20T05:45:22.515Z,7.68
2024-01-20T05:48:09.992Z,11.15
2024-01-20T05:50:57.297Z,9.13
2024-01-20T05:53:44.479Z,10.48
2024-01-20T05:56:31.731Z,9.57
2024-01-20T05:59:18.959Z,11.23
2024-01-20T06:02:06.142Z,8.98
2024-01-20T06:04:53.352Z,7.47
2024-01-20T06:07:40.970Z,9.48
2024-01-20T06:10:28.491Z,9.20
2024-01-20T06:13:15.733Z,7.40
2024-01-20T06:16:03.109Z,8.00
2024-01-20T06:18:50.381Z,10.43
2024-01-20T06:21:37.819Z,11.55
2024-01-20T06:24:25.219Z,8.70
2024-01-20T06:27:12.542Z,11.85
2024-01-20T06:29:59.744Z,12.05
2024-01-20T06:32:47.605Z,11.80
2024-01-20T06:35:34.988Z,10.80
2024-01-20T06:38:22.295Z,12.65
2024-01-20T06:41:09.681Z,11.43
2024-01-20T06:43:57.145Z,10.60
2024-01-20T06:46:44.471Z,11.27
2024-01-20T06:49:31.938Z,10.50
2024-01-20T06:52:19.508Z,11.15
2024-01-20T06:55:06.950Z,9.82
2024-01-20T06:57:54.274Z,9.13
2024-01-20T07:00:41.601Z,9.95
2024-01-20T07:03:29.077Z,9.88
2024-01-20T07:06:16.529Z,10.10
2024-01-20T07:09:06.857Z,10.63
2024-01-20T07:11:56.709Z,10.48
2024-01-20T07:14:44.605Z,10.65
2024-01-20T07:17:32.422Z,10.52
2024-01-20T07:20:19.645Z,9.60
2024-01-20T07:23:07.087Z,10.00
2024-01-20T07:25:54.314Z,8.43
2024-01-20T07:28:41.981Z,11.45
2024-01-20T07:31:29.533Z,10.50
2024-01-20T07:34:17.323Z,9.88
2024-01-20T07:37:05.189Z,10.60
2024-01-20T07:39:52.450Z,10.80
2024-01-20T07:42:41.313Z,10.00
2024-01-20T07:45:28.677Z,10.05
2024-01-20T07:48:16.400Z,9.68
2024-01-20T07:51:04.017Z,11.13
2024-01-20T07:53:51.294Z,9.85
2024-01-20T07:56:38.932Z,9.73
2024-01-20T07:59:26.159Z,9.95
2024-01-20T08:02:14.281Z,9.38
2024-01-20T08:05:01.918Z,9.55
2024-01-20T08:07:49.400Z,9.05
2024-01-20T08:10:36.633Z,9.35
2024-01-20T08:13:24.335Z,11.30
2024-01-20T08:16:11.718Z,10.32
2024-01-20T08:18:59.197Z,11.48
2024-01-20T08:21:46.475Z,11.15
2024-01-20T08:24:33.744Z,10.00
2024-01-20T08:27:21.026Z,11.00
2024-01-20T08:30:08.818Z,11.75
2024-01-20T08:32:57.714Z,14.90
2024-01-20T08:35:46.016Z,12.45
2024-01-20T08:38:33.183Z,11.18
2024-01-20T08:41:20.382Z,12.20
2024-01-20T08:44:07.690Z,12.98
2024-01-20T08:46:55.891Z,14.32
2024-01-20T08:49:43.540Z,10.05
2024-01-20T08:52:31.493Z,11.55
2024-01-20T08:55:18.764Z,11.20
2024-01-20T08:58:06.044Z,10.65
2024-01-20T09:00:53.327Z,11.27
2024-01-20T09:03:41.167Z,10.63
2024-01-20T09:06:29.066Z,10.10
2024-01-20T09:09:17.470Z,10.75
2024-01-20T09:12:05.196Z,10.30
2024-01-20T09:14:52.545Z,10.13
2024-01-20T09:17:39.889Z,9.80
2024-01-20T09:20:27.475Z,10.48
2024-01-20T09:23:14.750Z,9.93
2024-01-20T09:26:03.341Z,10.82
2024-01-20T09:28:50.876Z,10.48
2024-01-20T09:31:39.065Z,10.63
2024-01-20T09:34:26.395Z,9.50
2024-01-20T09:37:14.761Z,10.48
2024-01-20T09:40:02.178Z,9.27
2024-01-20T09:42:50.237Z,9.52
2024-01-20T09:45:40.122Z,8.98
2024-01-20T09:48:27.693Z,10.65
2024-01-20T09:51:15.952Z,8.85
2024-01-20T09:54:03.274Z,10.13
2024-01-20T09:56:51.750Z,9.68
2024-01-20T09:59:43.539Z,10.30
2024-01-20T10:02:31.960Z,9.80
2024-01-20T10:05:24.880Z,9.07
2024-01-20T10:08:13.346Z,11.00
2024-01-20T10:11:07.497Z,10.93
2024-01-20T10:13:56.166Z,10.95
2024-01-20T10:16:43.521Z,9.85
2024-01-20T10:19:31.373Z,10.70
2024-01-20T10:22:18.881Z,9.27
2024-01-20T10:25:07.381Z,10.60
2024-01-20T10:27:54.776Z,11.10
2024-01-20T10:30:42.700Z,10.32
2024-01-20T10:33:30.124Z,9.07
2024-01-20T10:36:18.703Z,9.50
2024-01-20T10:39:08.303Z,9.15
2024-01-20T10:42:10.722Z,9.52
2024-01-20T10:45:03.732Z,8.63
2024-01-20T10:48:01.437Z,8.55
2024-01-20T10:50:58.036Z,8.05
2024-01-20T10:53:47.699Z,8.35
2024-01-20T10:56:37.396Z,8.95
2024-01-20T10:59:28.876Z,8.10
2024-01-20T11:02:16.440Z,8.68
2024-01-20T11:05:04.772Z,9.18
2024-01-20T11:08:09.486Z,8.45
2024-01-20T11:10:56.826Z,9.25
2024-01-20T11:13:46.496Z,8.77
2024-01-20T11:16:34.455Z,9.77
2024-01-20T11:19:21.900Z,10.30
2024-01-20T11:22:31.220Z,9.68
2024-01-20T11:25:20.152Z,9.35
2024-01-20T11:28:07.418Z,9.55
2024-01-20T11:30:54.740Z,9.70
2024-01-20T11:33:42.282Z,9.68
2024-01-20T11:36:31.757Z,9.18
2024-01-20T11:39:20.311Z,8.23
2024-01-20T11:42:09.276Z,9.60
2024-01-20T11:44:56.599Z,8.70
2024-01-20T11:47:44.424Z,8.63
2024-01-20T11:50:32.204Z,9.98
2024-01-20T11:53:23.004Z,9.57
2024-01-20T11:56:10.416Z,9.45
2024-01-20T11:58:57.706Z,9.02
2024-01-20T12:01:45.104Z,8.88
2024-01-20T12:04:32.401Z,7.40
2024-01-20T12:07:20.302Z,8.40
2024-01-20T12:10:08.742Z,8.63
2024-01-20T12:12:56.189Z,8.45
2024-01-20T12:15:43.696Z,8.18
2024-01-20T12:18:31.347Z,7.72
2024-01-20T12:21:18.732Z,7.78
2024-01-20T12:24:32.533Z,8.25
2024-01-20T12:27:20.168Z,7.68
2024-01-20T12:30:08.020Z,7.93
2024-01-20T12:32:57.366Z,7.78
2024-01-20T12:35:44.818Z,7.38
2024-01-20T12:38:32.527Z,7.10
2024-01-20T12:41:19.868Z,7.70
2024-01-20T12:44:07.083Z,8.35
2024-01-20T12:46:54.844Z,6.68
2024-01-20T12:49:42.520Z,8.13
2024-01-20T12:52:29.837Z,7.90
2024-01-20T12:55:17.110Z,7.28
2024-01-20T12:58:04.549Z,6.95
2024-01-20T13:00:51.912Z,7.25
2024-01-20T13:03:39.233Z,7.13
2024-01-20T13:06:26.786Z,7.40
2024-01-20T13:09:14.343Z,6.90
2024-01-20T13:12:03.670Z,7.15
2024-01-20T13:14:51.141Z,6.70
2024-01-20T13:17:38.464Z,7.13
2024-01-20T13:20:25.815Z,6.95
2024-01-20T13:23:13.181Z,6.82
2024-01-20T13:26:01.922Z,6.93
2024-01-20T13:28:49.835Z,7.18
2024-01-20T13:31:37.091Z,7.07
2024-01-20T13:34:24.460Z,7.25
2024-01-20T13:37:11.710Z,7.30
2024-01-20T13:39:59.038Z,7.28
2024-01-20T13:42:46.396Z,7.15
2024-01-20T13:45:33.983Z,6.47
2024-01-20T13:48:21.338Z,7.10
2024-01-20T13:51:08.701Z,6.78
2024-01-20T13:53:56.043Z,6.90
2024-01-20T13:56:43.294Z,7.35
2024-01-20T13:59:30.693Z,7.25
2024-01-20T14:02:17.867Z,7.22
2024-01-20T14:05:05.332Z,7.05
2024-01-20T14:07:52.818Z,6.82
2024-01-20T14:10:40.006Z,7.32
2024-01-20T14:13:27.361Z,7.07
2024-01-20T14:16:14.598Z,7.30
2024-01-20T14:19:08.090Z,6.72
2024-01-20T14:21:56.452Z,7.18
2024-01-20T14:24:43.686Z,6.30
2024-01-20T14:27:30.930Z,7.28
2024-01-20T14:30:18.835Z,6.95
2024-01-20T14:33:06.290Z,7.53
2024-01-20T14:35:54.467Z,7.82
2024-01-20T14:38:41.729Z,8.35
2024-01-20T14:41:28.902Z,8.15
2024-01-20T14:44:16.327Z,8.80
2024-01-20T14:47:04.029Z,6.82
2024-01-20T14:49:51.302Z,6.47
2024-01-20T14:52:38.650Z,7.18
2024-01-20T14:55:27.194Z,7.57
2024-01-20T14:58:15.997Z,6.80
2024-01-20T15:01:04.116Z,5.90
2024-01-20T15:03:51.509Z,7.15
2024-01-20T15:06:38.784Z,7.20
2024-01-20T15:09:26.864Z,7.05
2024-01-20T15:12:14.186Z,6.40
2024-01-20T15:15:01.546Z,6.15
2024-01-20T15:17:48.902Z,7.05
2024-01-20T15:20:37.227Z,6.40
2024-01-20T15:23:25.049Z,6.00
2024-01-20T15:26:16.232Z,7.22
2024-01-20T15:31:50.789Z,5.57
2024-01-20T15:34:39.233Z,5.97
2024-01-20T15:37:26.578Z,4.88
2024-01-20T15:40:14.030Z,6.80
2024-01-20T15:43:01.548Z,6.13
2024-01-20T15:45:49.011Z,5.30
2024-01-20T15:48:36.433Z,6.03
2024-01-20T15:51:23.747Z,7.28
2024-01-20T15:54:11.145Z,7.57
2024-01-20T15:56:58.411Z,6.78
2024-01-20T15:59:45.723Z,6.28
2024-01-20T16:02:33.196Z,7.00
2024-01-20T16:05:20.763Z,8.20
2024-01-20T16:08:08.121Z,7.90
2024-01-20T16:10:55.447Z,8.05
2024-01-20T16:13:42.597Z,8.10
2024-01-20T16:16:30.117Z,7.85
2024-01-20T16:19:18.371Z,8.00
2024-01-20T16:22:05.711Z,7.05
2024-01-20T16:24:52.907Z,7.25
2024-01-20T16:27:40.370Z,6.13
2024-01-20T16:30:27.862Z,6.95
2024-01-20T16:33:15.273Z,6.68
2024-01-20T16:36:02.537Z,7.63
2024-01-20T16:38:49.804Z,6.22
2024-01-20T16:41:37.338Z,7.05
2024-01-20T16:44:24.563Z,6.32
2024-01-20T16:47:11.792Z,5.80
2024-01-20T16:49:59.308Z,5.90
2024-01-20T16:52:46.769Z,6.38
2024-01-20T16:55:37.460Z,6.25
2024-01-20T16:58:24.919Z,5.97
2024-01-20T17:01:12.335Z,6.55
2024-01-20T17:04:00.044Z,6.95
2024-01-20T17:06:49.687Z,7.07
2024-01-20T17:09:36.967Z,6.40
2024-01-20T17:12:26.525Z,6.57
2024-01-20T17:15:13.999Z,7.03
2024-01-20T17:18:02.511Z,6.90
2024-01-20T17:20:49.807Z,6.93
2024-01-20T17:23:37.121Z,6.85
2024-01-20T17:26:31.745Z,7.18
2024-01-20T17:29:19.176Z,7.53
2024-01-20T17:32:06.975Z,7.72
2024-01-20T17:34:54.373Z,8.00
2024-01-20T17:37:41.616Z,8.38
2024-01-20T17:40:28.918Z,6.65
2024-01-20T17:43:16.303Z,7.93
2024-01-20T17:46:03.625Z,8.05
2024-01-20T17:48:50.914Z,8.07
2024-01-20T17:51:40.650Z,7.10
2024-01-20T17:54:32.713Z,6.35
2024-01-20T17:57:20.461Z,7.40
2024-01-20T18:00:10.683Z,6.70
2024-01-20T18:02:59.666Z,7.03
2024-01-20T18:05:47.120Z,6.40
2024-01-20T18:08:34.965Z,6.93
2024-01-20T18:11:22.633Z,7.00
2024-01-20T18:14:09.974Z,6.72
2024-01-20T18:16:57.278Z,6.05
2024-01-20T18:19:44.553Z,6.10
2024-01-20T18:22:32.771Z,4.88
2024-01-20T18:25:20.104Z,6.05
2024-01-20T18:28:07.734Z,5.38
2024-01-20T18:30:55.397Z,5.60
2024-01-20T18:33:42.999Z,5.88
2024-01-20T18:36:30.298Z,6.28
2024-01-20T18:39:17.989Z,5.25
2024-01-20T18:42:06.078Z,5.80
2024-01-20T18:44:54.114Z,4.25
2024-01-20T18:47:47.329Z,4.13
2024-01-20T18:50:35.882Z,5.55
2024-01-20T18:53:23.099Z,5.38
2024-01-20T18:56:10.388Z,5.28
2024-01-20T18:58:57.816Z,5.43
2024-01-20T19:01:45.109Z,4.50
2024-01-20T19:04:32.883Z,4.45
2024-01-20T19:07:20.185Z,4.93
2024-01-20T19:10:11.083Z,4.18
2024-01-20T19:12:58.531Z,5.88
2024-01-20T19:15:48.964Z,6.35
2024-01-20T19:18:38.603Z,4.50
2024-01-20T19:21:26.157Z,4.78
2024-01-20T19:24:15.668Z,5.07
2024-01-20T19:27:03.700Z,5.28
2024-01-20T19:29:51.903Z,5.07
2024-01-20T19:32:39.731Z,5.90
2024-01-20T19:35:27.552Z,4.65
2024-01-20T19:38:15.095Z,5.10
2024-01-20T19:41:02.958Z,5.43
2024-01-20T19:43:50.158Z,5.57
2024-01-20T19:46:41.074Z,5.38
2024-01-20T19:49:28.656Z,4.10
2024-01-20T19:52:16.280Z,4.95
2024-01-20T19:55:06.065Z,4.65
2024-01-20T19:57:53.440Z,3.60
2024-01-20T20:00:40.725Z,4.20
2024-01-20T20:03:28.481Z,4.07
2024-01-20T20:06:15.929Z,4.03
2024-01-20T20:09:03.745Z,3.28
2024-01-20T20:11:51.183Z,3.55
2024-01-20T20:14:38.781Z,3.17
2024-01-20T20:17:26.441Z,2.88
2024-01-20T20:20:13.896Z,2.95
2024-01-20T20:23:01.076Z,2.95
2024-01-20T20:25:48.411Z,3.17
2024-01-20T20:28:36.427Z,2.90
2024-01-20T20:31:25.875Z,2.85
2024-01-20T20:34:13.421Z,2.33
2024-01-20T20:37:00.924Z,2.20
2024-01-20T20:39:50.035Z,1.80
2024-01-20T20:42:37.932Z,2.35
2024-01-20T20:45:25.240Z,2.17
2024-01-20T20:48:12.745Z,2.30
2024-01-20T20:51:00.287Z,2.85
2024-01-20T20:53:47.537Z,2.17
2024-01-20T20:56:34.873Z,2.30
2024-01-20T20:59:22.279Z,2.10
2024-01-20T21:02:09.903Z,1.52
2024-01-20T21:04:57.338Z,1.67
2024-01-20T21:07:45.207Z,1.48
2024-01-20T21:10:34.097Z,1.38
2024-01-20T21:13:21.310Z,1.05
2024-01-20T21:16:08.647Z,1.45
2024-01-20T21:18:57.949Z,1.92
2024-01-20T21:21:45.644Z,1.30
2024-01-20T21:24:33.345Z,1.40
2024-01-20T21:27:22.663Z,1.73
2024-01-20T21:30:10.825Z,1.17
2024-01-20T21:32:58.175Z,1.58
2024-01-20T21:35:45.443Z,1.10
2024-01-20T21:38:33.174Z,1.75
2024-01-20T21:41:20.603Z,1.75
2024-01-20T21:44:07.950Z,1.25
2024-01-20T21:46:55.342Z,2.00
2024-01-20T21:49:42.721Z,2.03
2024-01-20T21:52:29.993Z,1.23
2024-01-20T21:55:17.291Z,1.67
2024-01-20T21:58:04.771Z,1.63
2024-01-20T22:00:52.042Z,1.50
2024-01-20T22:03:39.385Z,1.70
2024-01-20T22:06:26.872Z,1.27
2024-01-20T22:09:14.494Z,1.95
2024-01-20T22:12:01.731Z,1.58
2024-01-20T22:14:48.954Z,1.50
2024-01-20T22:17:36.211Z,2.00
2024-01-20T22:20:24.222Z,2.03
2024-01-20T22:23:11.843Z,2.05
2024-01-20T22:25:59.263Z,1.65
2024-01-20T22:28:47.361Z,2.00
2024-01-20T22:31:34.742Z,2.28
2024-01-20T22:34:22.213Z,2.00
2024-01-20T22:37:09.619Z,2.30
2024-01-20T22:39:56.872Z,2.85
2024-01-20T22:42:44.212Z,2.83
2024-01-20T22:45:31.593Z,2.60
2024-01-20T22:48:19.695Z,2.55
2024-01-20T22:51:06.983Z,2.42
2024-01-20T22:53:54.277Z,2.33
2024-01-20T22:56:41.637Z,2.65
2024-01-20T22:59:28.997Z,2.42
2024-01-20T23:02:16.485Z,2.25
2024-01-20T23:05:04.039Z,2.53
2024-01-20T23:07:51.522Z,2.88
2024-01-20T23:10:38.725Z,2.38
2024-01-20T23:13:25.995Z,3.10
2024-01-20T23:16:14.669Z,2.78
2024-01-20T23:19:02.077Z,3.15
2024-01-20T23:21:49.510Z,2.58
2024-01-20T23:24:36.782Z,2.53
2024-01-20T23:27:24.030Z,2.47
2024-01-20T23:30:12.780Z,2.63
2024-01-20T23:33:03.445Z,2.63
2024-01-20T23:35:50.813Z,2.95
2024-01-20T23:38:38.037Z,3.00
2024-01-20T23:41:26.042Z,2.38
2024-01-20T23:44:15.452Z,2.70
2024-01-20T23:47:02.697Z,3.00
2024-01-20T23:49:49.940Z,3.10
2024-01-20T23:52:37.601Z,2.63
2024-01-20T23:55:25.015Z,3.10
2024-01-20T23:58:12.509Z,3.10
